Grandin Road, Virginia
Current Conditions -  °F | °C
As of 6:54 AM on Friday 24 Oct 2014 (Local Time) from KROA Reporting Station
Few Clouds Few Clouds  
Wind Chill: 44°   Ceiling: Unl
Heat Index: 46°   Visibility: 10mi
Dew Point: 39°   Wind: 5mph
Humidity: 76%   Direction: 280°W
Pressure: 30.1"   Gusts: NA
Location:  37.2556°N, 79.9796°W
Report Text: KROA 241054Z 28004KT 10SM FEW250 08/04 A3010 RMK AO2 SLP193 T00780039
Loading
Personal Weather Stations






























Interactive Weather Map
Tropical Storm Tracking
New forecast layout! Learn more

10-Day Weather Forecast

Advertisements
Track Severe Weather on mobile